createdAt,value
2018-06-21T06:42:42.775Z,22.50
2018-06-21T06:43:42.384Z,33.75
2018-06-21T06:45:35.256Z,33.75
2018-06-21T06:46:35.274Z,45.00
2018-06-21T06:48:28.138Z,50.63
2018-06-21T06:49:28.087Z,61.88
2018-06-21T06:51:20.971Z,56.25
2018-06-21T06:52:20.937Z,50.63
2018-06-21T06:54:13.844Z,39.38
2018-06-21T06:55:13.795Z,33.75
2018-06-21T06:57:06.710Z,33.75
2018-06-21T06:58:06.651Z,33.75
2018-06-21T06:59:59.529Z,28.13
2018-06-21T07:00:59.510Z,22.50
2018-06-21T07:02:52.414Z,28.13
2018-06-21T07:03:52.359Z,22.50
2018-06-21T07:05:45.246Z,28.13
2018-06-21T07:06:45.212Z,33.75
2018-06-21T07:08:38.115Z,39.38
2018-06-21T07:09:38.070Z,22.50
2018-06-21T07:11:30.973Z,5.63
2018-06-21T07:12:30.921Z,5.63
2018-06-21T07:14:23.852Z,16.88
2018-06-21T07:15:23.774Z,11.25
2018-06-21T07:16:23.759Z,16.88
2018-06-21T07:17:23.732Z,16.88
2018-06-21T07:18:23.705Z,11.25
2018-06-21T07:19:23.683Z,11.25
2018-06-21T07:20:23.684Z,16.88
2018-06-21T07:21:23.638Z,22.50
2018-06-21T07:22:23.607Z,22.50
2018-06-21T07:23:23.587Z,22.50
2018-06-21T07:24:23.565Z,22.50
2018-06-21T07:25:23.540Z,39.38
2018-06-21T07:26:23.514Z,45.00
2018-06-21T07:27:23.488Z,33.75
2018-06-21T07:28:23.530Z,33.75
2018-06-21T07:29:23.442Z,39.38
2018-06-21T07:30:23.421Z,50.63
2018-06-21T07:31:23.400Z,84.38
2018-06-21T07:32:23.375Z,95.63
2018-06-21T07:33:23.354Z,106.88
2018-06-21T07:34:23.321Z,123.75
2018-06-21T07:35:23.299Z,146.25
2018-06-21T07:36:23.277Z,168.75
2018-06-21T07:37:23.254Z,180.00
2018-06-21T07:38:23.230Z,185.63
2018-06-21T07:39:23.200Z,185.63
2018-06-21T07:40:23.184Z,180.00
2018-06-21T07:41:23.161Z,163.13
2018-06-21T07:42:23.131Z,140.63
2018-06-21T07:43:23.112Z,90.00
2018-06-21T07:44:23.083Z,73.13
2018-06-21T07:45:23.062Z,78.75
2018-06-21T07:46:23.035Z,84.38
2018-06-21T07:47:23.015Z,95.63
2018-06-21T07:48:22.987Z,106.88
2018-06-21T07:49:22.965Z,90.00
2018-06-21T07:50:22.938Z,84.38
2018-06-21T07:51:22.917Z,84.38
2018-06-21T07:52:22.891Z,84.38
2018-06-21T07:53:22.872Z,84.38
2018-06-21T07:54:22.840Z,84.38
2018-06-21T07:55:22.825Z,84.38
2018-06-21T07:56:22.796Z,90.00
2018-06-21T07:57:22.774Z,90.00
2018-06-21T07:58:22.753Z,95.63
2018-06-21T07:59:22.722Z,101.25
2018-06-21T08:00:22.708Z,118.13
2018-06-21T08:01:22.689Z,140.63
2018-06-21T08:02:22.669Z,135.00
2018-06-21T08:03:22.626Z,146.25
2018-06-21T08:04:22.602Z,157.50
2018-06-21T08:05:22.578Z,180.00
2018-06-21T08:06:22.559Z,219.38
2018-06-21T08:07:22.536Z,236.25
2018-06-21T08:08:22.510Z,225.00
2018-06-21T08:09:22.482Z,213.75
2018-06-21T08:10:22.467Z,191.25
2018-06-21T08:11:22.432Z,168.75
2018-06-21T08:12:22.417Z,163.13
2018-06-21T08:13:22.396Z,168.75
2018-06-21T08:14:22.365Z,185.63
2018-06-21T08:15:22.348Z,236.25
2018-06-21T08:16:22.314Z,270.00
2018-06-21T08:17:22.295Z,219.38
2018-06-21T08:18:22.272Z,191.25
2018-06-21T08:19:22.247Z,191.25
2018-06-21T08:20:22.255Z,196.88
2018-06-21T08:21:22.200Z,196.88
2018-06-21T08:22:22.173Z,225.00
2018-06-21T08:23:22.162Z,258.75
2018-06-21T08:24:22.139Z,225.00
2018-06-21T08:25:22.111Z,196.88
2018-06-21T08:26:22.079Z,163.13
2018-06-21T08:27:22.055Z,174.38
2018-06-21T08:28:22.036Z,157.50
2018-06-21T08:29:22.010Z,123.75
2018-06-21T08:30:21.985Z,106.88
2018-06-21T08:31:21.984Z,118.13
2018-06-21T08:32:21.966Z,151.88
2018-06-21T08:33:21.920Z,196.88
2018-06-21T08:34:21.916Z,196.88
2018-06-21T08:35:21.877Z,168.75
2018-06-21T08:36:21.852Z,174.38
2018-06-21T08:37:21.824Z,202.50
2018-06-21T08:38:21.792Z,213.75
2018-06-21T08:39:21.786Z,180.00
2018-06-21T08:40:21.762Z,157.50
2018-06-21T08:41:21.741Z,180.00
2018-06-21T08:42:21.699Z,253.13
2018-06-21T08:43:21.684Z,270.00
2018-06-21T08:44:21.699Z,253.13
2018-06-21T08:45:21.647Z,185.63
2018-06-21T08:46:21.640Z,146.25
2018-06-21T08:47:21.586Z,140.63
2018-06-21T08:48:21.592Z,135.00
2018-06-21T08:49:21.534Z,151.88
2018-06-21T08:50:21.532Z,140.63
2018-06-21T08:51:21.485Z,163.13
2018-06-21T08:52:21.469Z,196.88
2018-06-21T08:53:21.476Z,230.63
2018-06-21T08:54:21.450Z,230.63
2018-06-21T08:55:21.395Z,219.38
2018-06-21T08:56:21.367Z,202.50
2018-06-21T08:57:21.349Z,225.00
2018-06-21T08:58:21.327Z,225.00
2018-06-21T08:59:21.305Z,258.75
2018-06-21T09:00:21.274Z,247.50
2018-06-21T09:01:21.252Z,241.88
2018-06-21T09:02:21.226Z,247.50
2018-06-21T09:03:21.200Z,241.88
2018-06-21T09:04:21.185Z,253.13
2018-06-21T09:05:21.179Z,241.88
2018-06-21T09:06:21.225Z,264.38
2018-06-21T09:07:21.107Z,275.63
2018-06-21T09:08:21.088Z,264.38
2018-06-21T09:09:21.075Z,247.50
2018-06-21T09:10:21.040Z,264.38
2018-06-21T09:11:21.055Z,303.75
2018-06-21T09:12:21.002Z,309.38
2018-06-21T09:13:20.980Z,309.38
2018-06-21T09:14:20.962Z,275.63
2018-06-21T09:15:20.989Z,264.38
2018-06-21T09:16:20.899Z,236.25
2018-06-21T09:17:20.879Z,253.13
2018-06-21T09:18:20.848Z,236.25
2018-06-21T09:19:20.832Z,236.25
2018-06-21T09:20:20.808Z,202.50
2018-06-21T09:21:20.783Z,135.00
2018-06-21T09:22:20.775Z,73.13
2018-06-21T09:23:20.791Z,56.25
2018-06-21T09:24:20.708Z,45.00
2018-06-21T09:25:20.700Z,28.13
2018-06-21T09:26:20.664Z,22.50
2018-06-21T09:27:20.638Z,22.50
2018-06-21T09:28:20.631Z,28.13
2018-06-21T09:29:20.591Z,33.75
2018-06-21T09:30:20.570Z,39.38
2018-06-21T09:31:20.550Z,50.63
2018-06-21T09:32:20.519Z,56.25
2018-06-21T09:33:20.560Z,61.88
2018-06-21T09:34:20.498Z,73.13
2018-06-21T09:35:20.453Z,84.38
2018-06-21T09:36:20.449Z,95.63
2018-06-21T09:37:20.420Z,118.13
2018-06-21T09:38:20.396Z,129.38
2018-06-21T09:39:20.371Z,151.88
2018-06-21T09:40:20.329Z,95.63
2018-06-21T09:41:20.305Z,112.50
2018-06-21T09:42:20.309Z,106.88
2018-06-21T09:43:20.869Z,123.75
2018-06-21T09:44:20.237Z,118.13
2018-06-21T09:45:20.251Z,112.50
2018-06-21T09:46:20.188Z,112.50
2018-06-21T09:47:20.175Z,112.50
2018-06-21T09:48:20.139Z,112.50
2018-06-21T09:49:20.119Z,112.50
2018-06-21T09:50:20.092Z,118.13
2018-06-21T09:51:20.099Z,112.50
2018-06-21T09:52:20.091Z,112.50
2018-06-21T09:53:20.040Z,123.75
2018-06-21T09:54:20.029Z,135.00
2018-06-21T09:55:19.971Z,146.25
2018-06-21T09:56:19.950Z,168.75
2018-06-21T09:57:19.937Z,163.13
2018-06-21T09:58:19.920Z,163.13
2018-06-21T09:59:19.869Z,202.50
2018-06-21T10:00:19.853Z,191.25
2018-06-21T10:01:19.844Z,163.13
2018-06-21T10:02:19.808Z,202.50
2018-06-21T10:03:19.775Z,230.63
2018-06-21T10:04:19.823Z,151.88
2018-06-21T10:05:19.807Z,140.63
2018-06-21T10:06:19.709Z,151.88
2018-06-21T10:07:19.687Z,163.13
2018-06-21T10:08:19.658Z,225.00
2018-06-21T10:09:19.653Z,208.13
2018-06-21T10:10:19.614Z,151.88
2018-06-21T10:11:19.589Z,146.25
2018-06-21T10:12:19.580Z,146.25
2018-06-21T10:13:19.545Z,118.13
2018-06-21T10:14:19.529Z,146.25
2018-06-21T10:15:19.488Z,146.25
2018-06-21T10:16:19.490Z,140.63
2018-06-21T10:17:19.457Z,135.00
2018-06-21T10:18:19.421Z,140.63
2018-06-21T10:19:19.413Z,140.63
2018-06-21T10:20:19.394Z,146.25
2018-06-21T10:21:19.350Z,151.88
2018-06-21T10:22:19.328Z,151.88
2018-06-21T10:23:19.347Z,151.88
2018-06-21T10:24:19.269Z,151.88
2018-06-21T10:25:19.245Z,157.50
2018-06-21T10:26:19.229Z,174.38
2018-06-21T10:27:19.197Z,185.63
2018-06-21T10:28:19.181Z,196.88
2018-06-21T10:29:19.161Z,196.88
2018-06-21T10:30:19.133Z,140.63
2018-06-21T10:31:19.101Z,191.25
2018-06-21T10:32:19.089Z,196.88
2018-06-21T10:33:19.057Z,191.25
2018-06-21T10:34:19.036Z,196.88
2018-06-21T10:35:19.014Z,219.38
2018-06-21T10:36:18.982Z,230.63
2018-06-21T10:37:18.960Z,241.88
2018-06-21T10:38:18.946Z,236.25
2018-06-21T10:39:18.919Z,196.88
2018-06-21T10:40:18.891Z,163.13
2018-06-21T10:41:18.875Z,168.75
2018-06-21T10:42:18.838Z,180.00
2018-06-21T10:43:18.819Z,106.88
2018-06-21T10:44:18.792Z,73.13
2018-06-21T10:45:18.769Z,118.13
2018-06-21T10:46:18.749Z,112.50
2018-06-21T10:47:18.725Z,112.50
2018-06-21T10:48:18.707Z,112.50
2018-06-21T10:49:18.684Z,118.13
2018-06-21T10:50:18.651Z,123.75
2018-06-21T10:51:18.629Z,129.38
2018-06-21T10:52:18.604Z,140.63
2018-06-21T10:53:18.578Z,157.50
2018-06-21T10:54:18.552Z,185.63
2018-06-21T10:55:18.532Z,213.75
2018-06-21T10:56:18.517Z,225.00
2018-06-21T10:57:18.481Z,219.38
2018-06-21T10:58:18.495Z,208.13
2018-06-21T10:59:18.458Z,146.25
2018-06-21T11:00:18.414Z,123.75
2018-06-21T11:01:18.422Z,112.50
2018-06-21T11:02:18.394Z,95.63
2018-06-21T11:03:18.359Z,95.63
2018-06-21T11:04:18.339Z,135.00
2018-06-21T11:05:18.295Z,180.00
2018-06-21T11:06:18.303Z,123.75
2018-06-21T11:07:18.251Z,168.75
2018-06-21T11:08:18.252Z,135.00
2018-06-21T11:09:18.207Z,191.25
2018-06-21T11:10:18.180Z,135.00
2018-06-21T11:11:18.151Z,151.88
2018-06-21T11:12:18.126Z,157.50
2018-06-21T11:13:18.113Z,146.25
2018-06-21T11:14:18.084Z,157.50
2018-06-21T11:15:18.066Z,219.38
2018-06-21T11:16:18.036Z,247.50
2018-06-21T11:17:18.028Z,264.38
2018-06-21T11:18:17.984Z,208.13
2018-06-21T11:19:17.960Z,191.25
2018-06-21T11:20:17.945Z,202.50
2018-06-21T11:21:17.948Z,225.00
2018-06-21T11:22:17.893Z,163.13
2018-06-21T11:23:17.862Z,163.13
2018-06-21T11:24:17.849Z,225.00
2018-06-21T11:25:17.819Z,157.50
2018-06-21T11:26:17.797Z,118.13
2018-06-21T11:27:17.767Z,112.50
2018-06-21T11:28:17.750Z,118.13
2018-06-21T11:29:17.724Z,123.75
2018-06-21T11:30:17.704Z,129.38
2018-06-21T11:31:17.676Z,84.38
2018-06-21T11:32:17.835Z,118.13
2018-06-21T11:33:18.333Z,135.00
2018-06-21T11:34:17.698Z,185.63
2018-06-21T11:35:17.684Z,118.13
2018-06-21T11:36:17.551Z,191.25
2018-06-21T11:37:17.531Z,123.75
2018-06-21T11:38:17.543Z,90.00
2018-06-21T11:39:17.484Z,118.13
2018-06-21T11:40:17.457Z,118.13
2018-06-21T11:41:17.484Z,123.75
2018-06-21T11:42:17.546Z,129.38
2018-06-21T11:43:17.396Z,140.63
2018-06-21T11:44:17.394Z,146.25
2018-06-21T11:45:17.344Z,146.25
2018-06-21T11:46:17.336Z,151.88
2018-06-21T11:47:17.332Z,157.50
2018-06-21T11:48:17.413Z,168.75
2018-06-21T11:49:17.428Z,208.13
2018-06-21T11:50:17.561Z,1158.75
2018-06-21T11:51:17.214Z,2581.88
2018-06-21T11:52:17.189Z,129.38
2018-06-21T11:53:17.154Z,3110.63
2018-06-21T11:54:17.209Z,135.00
2018-06-21T11:55:17.100Z,686.25
2018-06-21T11:56:17.090Z,3166.88
2018-06-21T11:57:17.049Z,3026.25
2018-06-21T11:58:17.037Z,3105.00
2018-06-21T11:59:17.008Z,3037.50
2018-06-21T12:00:17.020Z,1473.75
2018-06-21T12:01:16.999Z,3211.88
2018-06-21T12:02:16.979Z,3301.88
2018-06-21T12:03:16.955Z,3296.25
2018-06-21T12:04:16.889Z,3172.50
2018-06-21T12:05:16.875Z,2728.13
2018-06-21T12:06:16.845Z,236.25
2018-06-21T12:07:16.840Z,129.38
2018-06-21T12:08:16.811Z,1260.00
2018-06-21T12:09:16.793Z,84.38
2018-06-21T12:10:16.765Z,135.00
2018-06-21T12:11:16.743Z,2233.13
2018-06-21T12:12:16.726Z,2126.25
2018-06-21T12:13:16.703Z,1861.88
2018-06-21T12:14:16.675Z,1614.38
2018-06-21T12:15:16.653Z,1501.88
2018-06-21T12:16:16.635Z,1395.00
2018-06-21T12:17:16.605Z,1243.13
2018-06-21T12:18:16.589Z,1001.25
2018-06-21T12:19:16.642Z,950.63
2018-06-21T12:20:16.572Z,286.88
2018-06-21T12:21:16.547Z,781.88
2018-06-21T12:22:16.497Z,641.25
2018-06-21T12:23:16.473Z,376.88
2018-06-21T12:24:16.458Z,151.88
2018-06-21T12:25:16.439Z,151.88
2018-06-21T12:26:16.413Z,225.00
2018-06-21T12:27:16.385Z,292.50
2018-06-21T12:28:16.365Z,343.13
2018-06-21T12:29:16.342Z,123.75
2018-06-21T12:30:16.316Z,315.00
2018-06-21T12:31:16.295Z,157.50
2018-06-21T12:32:16.276Z,95.63
2018-06-21T12:33:16.253Z,112.50
2018-06-21T12:34:16.222Z,106.88
2018-06-21T12:35:16.207Z,118.13
2018-06-21T12:36:16.178Z,112.50
2018-06-21T12:37:16.161Z,118.13
2018-06-21T12:38:16.129Z,146.25
2018-06-21T12:39:16.116Z,151.88
2018-06-21T12:40:16.083Z,157.50
2018-06-21T12:41:16.065Z,241.88
2018-06-21T12:42:16.036Z,168.75
2018-06-21T12:43:16.016Z,123.75
2018-06-21T12:44:15.989Z,168.75
2018-06-21T12:45:15.966Z,123.75
2018-06-21T12:46:15.946Z,298.13
2018-06-21T12:47:15.923Z,230.63
2018-06-21T12:48:15.898Z,286.88
2018-06-21T12:49:15.867Z,196.88
2018-06-21T12:50:15.857Z,185.63
2018-06-21T12:51:15.825Z,230.63
2018-06-21T12:52:15.809Z,112.50
2018-06-21T12:53:15.774Z,270.00
2018-06-21T12:54:15.759Z,112.50
2018-06-21T12:55:15.726Z,163.13
2018-06-21T12:56:15.716Z,163.13
2018-06-21T12:57:15.681Z,191.25
2018-06-21T12:58:15.662Z,196.88
2018-06-21T12:59:15.636Z,309.38
2018-06-21T13:00:15.615Z,326.25
2018-06-21T13:01:15.589Z,208.13
2018-06-21T13:02:15.566Z,219.38
2018-06-21T13:03:15.536Z,146.25
2018-06-21T13:04:15.522Z,303.75
2018-06-21T13:05:15.536Z,163.13
2018-06-21T13:06:15.476Z,168.75
2018-06-21T13:07:15.451Z,157.50
2018-06-21T13:08:15.429Z,151.88
2018-06-21T13:09:15.403Z,157.50
2018-06-21T13:10:15.369Z,157.50
2018-06-21T13:11:15.351Z,157.50
2018-06-21T13:12:15.363Z,168.75
2018-06-21T13:13:15.309Z,253.13
2018-06-21T13:14:15.279Z,202.50
2018-06-21T13:15:15.253Z,157.50
2018-06-21T13:16:15.238Z,151.88
2018-06-21T13:17:15.214Z,146.25
2018-06-21T13:18:15.182Z,140.63
2018-06-21T13:19:15.163Z,146.25
2018-06-21T13:20:15.141Z,146.25
2018-06-21T13:21:15.111Z,140.63
2018-06-21T13:22:15.148Z,140.63
2018-06-21T13:23:15.069Z,140.63
2018-06-21T13:24:15.054Z,146.25
2018-06-21T13:25:15.021Z,151.88
2018-06-21T13:26:14.995Z,157.50
2018-06-21T13:27:14.970Z,163.13
2018-06-21T13:28:14.954Z,174.38
2018-06-21T13:29:14.931Z,185.63
2018-06-21T13:30:14.901Z,191.25
2018-06-21T13:31:14.876Z,157.50
2018-06-21T13:32:14.857Z,151.88
2018-06-21T13:33:14.825Z,140.63
2018-06-21T13:34:14.806Z,118.13
2018-06-21T13:35:14.780Z,129.38
2018-06-21T13:36:14.759Z,123.75
2018-06-21T13:37:14.738Z,123.75
2018-06-21T13:38:14.714Z,129.38
2018-06-21T13:39:14.693Z,135.00
2018-06-21T13:40:14.663Z,146.25
2018-06-21T13:41:14.639Z,151.88
2018-06-21T13:42:14.618Z,151.88
2018-06-21T13:43:14.591Z,163.13
2018-06-21T13:44:14.570Z,168.75
2018-06-21T13:45:14.541Z,174.38
2018-06-21T13:46:14.526Z,168.75
2018-06-21T13:47:14.509Z,180.00
2018-06-21T13:48:14.483Z,180.00
2018-06-21T13:49:14.453Z,174.38
2018-06-21T13:50:14.427Z,174.38
2018-06-21T13:51:14.415Z,180.00
2018-06-21T13:52:14.375Z,185.63
2018-06-21T13:53:14.355Z,157.50
2018-06-21T13:54:14.330Z,180.00
2018-06-21T13:55:14.307Z,174.38
2018-06-21T13:56:14.288Z,146.25
2018-06-21T13:57:14.255Z,163.13
2018-06-21T13:58:14.241Z,106.88
2018-06-21T13:59:14.270Z,168.75
2018-06-21T14:00:14.191Z,174.38
2018-06-21T14:01:14.165Z,163.13
2018-06-21T14:02:14.143Z,157.50
2018-06-21T14:03:14.113Z,146.25
2018-06-21T14:04:14.096Z,157.50
2018-06-21T14:05:14.084Z,140.63
2018-06-21T14:06:14.050Z,123.75
2018-06-21T14:07:14.017Z,118.13
2018-06-21T14:08:14.080Z,118.13
2018-06-21T14:09:13.973Z,118.13
2018-06-21T14:10:13.950Z,118.13
2018-06-21T14:11:13.928Z,118.13
2018-06-21T14:12:13.906Z,118.13
2018-06-21T14:13:13.872Z,118.13
2018-06-21T14:14:13.850Z,118.13
2018-06-21T14:15:13.830Z,118.13
2018-06-21T14:16:13.809Z,118.13
2018-06-21T14:17:13.781Z,118.13
2018-06-21T14:18:13.765Z,118.13
2018-06-21T14:19:13.778Z,118.13
2018-06-21T14:20:13.710Z,123.75
2018-06-21T14:21:13.686Z,135.00
2018-06-21T14:22:13.657Z,157.50
2018-06-21T14:23:13.645Z,157.50
2018-06-21T14:24:13.612Z,191.25
2018-06-21T14:25:13.591Z,219.38
2018-06-21T14:26:13.565Z,157.50
2018-06-21T14:27:13.539Z,163.13
2018-06-21T14:28:13.525Z,168.75
2018-06-21T14:29:13.492Z,180.00
2018-06-21T14:30:13.562Z,180.00
2018-06-21T14:31:13.444Z,180.00
2018-06-21T14:32:13.431Z,191.25
2018-06-21T14:33:13.413Z,208.13
2018-06-21T14:34:13.372Z,213.75
2018-06-21T14:35:13.357Z,185.63
2018-06-21T14:36:13.330Z,219.38
2018-06-21T14:37:13.301Z,230.63
2018-06-21T14:38:13.288Z,202.50
2018-06-21T14:39:13.297Z,185.63
2018-06-21T14:40:13.239Z,191.25
2018-06-21T14:41:13.266Z,174.38
2018-06-21T14:42:13.186Z,213.75
2018-06-21T14:43:13.163Z,191.25
2018-06-21T14:44:13.140Z,185.63
2018-06-21T14:45:13.116Z,202.50
2018-06-21T14:46:13.131Z,230.63
2018-06-21T14:47:13.068Z,168.75
2018-06-21T14:48:13.137Z,146.25
2018-06-21T14:49:13.024Z,146.25
2018-06-21T14:50:13.003Z,151.88
2018-06-21T14:51:12.969Z,163.13
2018-06-21T14:52:12.953Z,174.38
2018-06-21T14:53:12.930Z,213.75
2018-06-21T14:54:12.903Z,247.50
2018-06-21T14:55:12.881Z,236.25
2018-06-21T14:56:12.861Z,196.88
2018-06-21T14:57:12.925Z,180.00
2018-06-21T14:58:12.828Z,163.13
2018-06-21T14:59:12.779Z,151.88
2018-06-21T15:00:12.764Z,140.63
2018-06-21T15:01:12.730Z,146.25
2018-06-21T15:02:12.721Z,168.75
2018-06-21T15:03:12.700Z,180.00
2018-06-21T15:04:12.675Z,174.38
2018-06-21T15:05:12.642Z,163.13
2018-06-21T15:06:12.621Z,163.13
2018-06-21T15:07:12.596Z,163.13
2018-06-21T15:08:12.569Z,163.13
2018-06-21T15:09:12.540Z,168.75
2018-06-21T15:10:12.518Z,174.38
2018-06-21T15:11:12.545Z,185.63
2018-06-21T15:12:12.473Z,180.00
2018-06-21T15:13:12.452Z,174.38
2018-06-21T15:14:12.420Z,168.75
2018-06-21T15:15:12.401Z,157.50
2018-06-21T15:16:12.385Z,151.88
2018-06-21T15:17:12.356Z,140.63
2018-06-21T15:18:12.325Z,140.63
2018-06-21T15:19:12.305Z,146.25
2018-06-21T15:20:12.282Z,151.88
2018-06-21T15:21:12.248Z,157.50
2018-06-21T15:22:12.237Z,163.13
2018-06-21T15:23:12.208Z,180.00
2018-06-21T15:24:12.184Z,191.25
2018-06-21T15:25:12.162Z,196.88
2018-06-21T15:26:12.135Z,219.38
2018-06-21T15:27:12.113Z,230.63
2018-06-21T15:28:12.082Z,236.25
2018-06-21T15:29:12.057Z,236.25
2018-06-21T15:30:12.041Z,202.50
2018-06-21T15:31:12.008Z,174.38
2018-06-21T15:32:11.987Z,135.00
2018-06-21T15:33:11.959Z,123.75
2018-06-21T15:34:11.943Z,118.13
2018-06-21T15:35:11.912Z,118.13
2018-06-21T15:36:11.896Z,118.13
2018-06-21T15:37:11.870Z,118.13
2018-06-21T15:38:11.839Z,118.13
2018-06-21T15:39:11.823Z,118.13
2018-06-21T15:40:11.982Z,118.13
2018-06-21T15:41:11.768Z,118.13
2018-06-21T15:42:11.748Z,123.75
2018-06-21T15:43:11.720Z,123.75
2018-06-21T15:44:11.700Z,129.38
2018-06-21T15:45:11.676Z,135.00
2018-06-21T15:46:11.655Z,135.00
2018-06-21T15:47:11.623Z,146.25
2018-06-21T15:48:11.606Z,140.63
2018-06-21T15:49:11.572Z,146.25
2018-06-21T15:50:11.557Z,157.50
2018-06-21T15:51:11.526Z,163.13
2018-06-21T15:52:11.509Z,163.13
2018-06-21T15:53:11.485Z,157.50
2018-06-21T15:54:11.453Z,168.75
2018-06-21T15:55:11.437Z,168.75
2018-06-21T15:56:11.407Z,129.38
2018-06-21T15:57:11.411Z,123.75
2018-06-21T15:58:11.374Z,196.88
2018-06-21T15:59:11.341Z,202.50
2018-06-21T16:00:11.313Z,196.88
2018-06-21T16:01:11.294Z,202.50
2018-06-21T16:02:11.261Z,146.25
2018-06-21T16:03:11.342Z,270.00
2018-06-21T16:04:11.238Z,151.88
2018-06-21T16:05:11.192Z,151.88
2018-06-21T16:06:11.171Z,540.00
2018-06-21T16:07:11.152Z,596.25
2018-06-21T16:08:11.118Z,630.00
2018-06-21T16:09:11.099Z,191.25
2018-06-21T16:10:11.075Z,202.50
2018-06-21T16:11:11.049Z,646.88
2018-06-21T16:12:11.035Z,601.88
2018-06-21T16:13:11.014Z,185.63
2018-06-21T16:14:10.977Z,180.00
2018-06-21T16:15:10.958Z,174.38
2018-06-21T16:16:10.938Z,208.13
2018-06-21T16:17:10.916Z,714.38
2018-06-21T16:18:10.889Z,708.75
2018-06-21T16:19:10.864Z,528.75
2018-06-21T16:20:10.850Z,118.13
2018-06-21T16:21:10.833Z,112.50
2018-06-21T16:22:10.798Z,90.00
2018-06-21T16:23:10.775Z,84.38
2018-06-21T16:24:10.758Z,78.75
2018-06-21T16:25:10.735Z,67.50
2018-06-21T16:26:10.704Z,56.25
2018-06-21T16:27:10.689Z,56.25
2018-06-21T16:28:10.678Z,50.63
2018-06-21T16:29:10.640Z,50.63
2018-06-21T16:30:10.622Z,45.00
2018-06-21T16:31:10.590Z,39.38
2018-06-21T16:32:10.576Z,39.38
2018-06-21T16:33:10.548Z,39.38
2018-06-21T16:34:10.526Z,45.00
2018-06-21T16:35:10.499Z,56.25
2018-06-21T16:36:10.480Z,67.50
2018-06-21T16:37:10.453Z,73.13
2018-06-21T16:38:10.431Z,78.75
2018-06-21T16:39:10.406Z,95.63
2018-06-21T16:40:10.423Z,112.50
2018-06-21T16:41:10.356Z,135.00
2018-06-21T16:42:10.341Z,151.88
2018-06-21T16:43:10.315Z,174.38
2018-06-21T16:44:10.293Z,185.63
2018-06-21T16:45:10.263Z,180.00
2018-06-21T16:46:10.242Z,168.75
2018-06-21T16:47:10.215Z,168.75
2018-06-21T16:48:10.194Z,236.25
2018-06-21T16:49:10.171Z,759.38
2018-06-21T16:50:10.145Z,1018.13
2018-06-21T16:51:10.119Z,961.88
2018-06-21T16:52:10.105Z,1006.88
2018-06-21T16:53:10.074Z,995.63
2018-06-21T16:54:10.057Z,990.00
2018-06-21T16:55:10.028Z,990.00
2018-06-21T16:56:10.003Z,973.13
2018-06-21T16:57:09.985Z,956.25
2018-06-21T16:58:09.953Z,950.63
2018-06-21T16:59:09.933Z,928.13
2018-06-21T17:00:09.915Z,928.13
2018-06-21T17:01:09.890Z,922.50
2018-06-21T17:02:09.892Z,916.88
2018-06-21T17:03:09.851Z,911.25
2018-06-21T17:04:09.827Z,911.25
2018-06-21T17:05:09.809Z,916.88
2018-06-21T17:06:09.781Z,911.25
2018-06-21T17:07:09.762Z,911.25
2018-06-21T17:08:09.744Z,916.88
2018-06-21T17:09:09.729Z,911.25
2018-06-21T17:10:09.710Z,916.88
2018-06-21T17:11:09.684Z,928.13
2018-06-21T17:12:09.673Z,939.38
2018-06-21T17:13:09.644Z,928.13
2018-06-21T17:14:09.634Z,922.50
2018-06-21T17:15:09.628Z,78.75
2018-06-21T17:16:09.589Z,73.13
2018-06-21T17:17:09.687Z,73.13
2018-06-21T17:18:09.548Z,78.75
2018-06-21T17:19:09.531Z,90.00
2018-06-21T17:20:09.525Z,112.50
2018-06-21T17:21:09.494Z,196.88
2018-06-21T17:22:09.471Z,157.50
2018-06-21T17:23:09.449Z,174.38
2018-06-21T17:24:09.436Z,157.50
2018-06-21T17:25:09.407Z,101.25
2018-06-21T17:26:09.394Z,84.38
2018-06-21T17:27:09.373Z,73.13
2018-06-21T17:28:09.350Z,67.50
2018-06-21T17:29:09.322Z,67.50
2018-06-21T17:30:09.304Z,73.13
2018-06-21T17:31:09.304Z,84.38
2018-06-21T17:32:09.265Z,123.75
2018-06-21T17:33:09.233Z,826.88
2018-06-21T17:34:09.220Z,838.13
2018-06-21T17:35:09.185Z,826.88
2018-06-21T17:36:09.233Z,815.63
2018-06-21T17:37:09.142Z,793.13
2018-06-21T17:38:09.127Z,140.63
2018-06-21T17:39:09.108Z,168.75
2018-06-21T17:40:09.079Z,90.00
2018-06-21T17:41:09.061Z,78.75
2018-06-21T17:42:09.025Z,84.38
2018-06-21T17:43:09.013Z,90.00
2018-06-21T17:44:08.982Z,90.00
2018-06-21T17:45:08.967Z,84.38
2018-06-21T17:46:08.940Z,73.13
2018-06-21T17:47:08.920Z,61.88
2018-06-21T17:48:08.898Z,56.25
2018-06-21T17:49:08.879Z,45.00
2018-06-21T17:50:08.845Z,39.38
2018-06-21T17:51:08.826Z,45.00
2018-06-21T17:52:08.800Z,45.00
2018-06-21T17:53:08.783Z,50.63
2018-06-21T17:54:08.758Z,56.25
2018-06-21T17:55:08.727Z,67.50
2018-06-21T17:56:08.714Z,67.50
2018-06-21T17:57:08.716Z,67.50
2018-06-21T17:58:08.738Z,67.50
2018-06-21T17:59:08.646Z,73.13
2018-06-21T18:00:08.619Z,78.75
2018-06-21T18:01:08.594Z,90.00
2018-06-21T18:02:08.559Z,101.25
2018-06-21T18:03:08.544Z,101.25
2018-06-21T18:04:08.520Z,95.63
2018-06-21T18:05:08.496Z,90.00
2018-06-21T18:06:08.478Z,84.38
2018-06-21T18:07:08.442Z,73.13
2018-06-21T18:08:08.421Z,73.13
2018-06-21T18:09:08.419Z,78.75
2018-06-21T18:10:08.373Z,73.13
2018-06-21T18:11:08.346Z,478.13
2018-06-21T18:12:08.327Z,371.25
2018-06-21T18:13:08.306Z,258.75
2018-06-21T18:14:08.271Z,506.25
2018-06-21T18:15:08.251Z,523.13
2018-06-21T18:16:08.229Z,506.25
2018-06-21T18:17:08.199Z,455.63
2018-06-21T18:18:08.186Z,421.88
2018-06-21T18:19:08.156Z,376.88
2018-06-21T18:20:08.129Z,331.88
2018-06-21T18:21:08.104Z,303.75
2018-06-21T18:22:08.078Z,275.63
2018-06-21T18:23:08.063Z,253.13
2018-06-21T18:24:08.031Z,230.63
2018-06-21T18:25:08.008Z,213.75
2018-06-21T18:26:07.994Z,191.25
2018-06-21T18:27:07.963Z,185.63
2018-06-21T18:28:07.942Z,163.13
2018-06-21T18:29:07.966Z,146.25
2018-06-21T18:30:07.894Z,135.00
2018-06-21T18:31:07.866Z,140.63
2018-06-21T18:32:07.841Z,135.00
2018-06-21T18:33:07.816Z,129.38
2018-06-21T18:34:07.793Z,123.75
2018-06-21T18:35:07.773Z,118.13
2018-06-21T18:36:07.741Z,112.50
2018-06-21T18:37:07.721Z,106.88
2018-06-21T18:38:07.699Z,106.88
2018-06-21T18:39:07.666Z,101.25
2018-06-21T18:40:07.651Z,101.25
2018-06-21T18:41:07.625Z,95.63
2018-06-21T18:42:07.591Z,95.63
2018-06-21T18:43:07.569Z,90.00
2018-06-21T18:44:07.542Z,90.00
2018-06-21T18:45:07.525Z,84.38
2018-06-21T18:46:07.494Z,78.75
2018-06-21T18:47:07.471Z,45.00
2018-06-21T18:48:07.451Z,39.38
2018-06-21T18:49:07.426Z,39.38
2018-06-21T18:50:07.398Z,33.75
2018-06-21T18:51:07.371Z,28.13
2018-06-21T18:52:07.355Z,28.13
2018-06-21T18:53:07.323Z,22.50
2018-06-21T18:54:07.298Z,22.50
2018-06-21T18:55:07.275Z,22.50
2018-06-21T18:56:07.247Z,16.88
2018-06-21T18:57:07.227Z,16.88
2018-06-21T18:58:07.203Z,16.88
2018-06-21T18:59:07.172Z,16.88
2018-06-21T19:00:07.156Z,16.88
2018-06-21T19:01:07.129Z,16.88
2018-06-21T19:02:07.102Z,22.50
2018-06-21T19:03:07.073Z,22.50
2018-06-21T19:04:07.058Z,22.50
2018-06-21T19:05:07.028Z,22.50
2018-06-21T19:06:07.010Z,16.88
2018-06-21T19:07:06.982Z,16.88
2018-06-21T19:08:06.952Z,16.88
2018-06-21T19:09:06.932Z,16.88
2018-06-21T19:10:06.907Z,16.88
2018-06-21T19:11:06.873Z,16.88
2018-06-21T19:12:06.858Z,16.88
2018-06-21T19:13:06.824Z,16.88
2018-06-21T19:14:06.804Z,16.88
2018-06-21T19:15:06.781Z,16.88
2018-06-21T19:16:06.757Z,16.88
2018-06-21T19:17:06.725Z,16.88
2018-06-21T19:18:06.704Z,16.88
2018-06-21T19:19:06.682Z,16.88
2018-06-21T19:20:06.649Z,22.50
2018-06-21T19:21:06.627Z,22.50
2018-06-21T19:22:06.599Z,22.50
2018-06-21T19:23:06.576Z,28.13
2018-06-21T19:24:06.556Z,33.75
2018-06-21T19:25:06.522Z,39.38